McNutt, Louisiana
Current Conditions -  °F | °C
As of 2:53 AM on Wednesday 28 Jan 2015 (Local Time) from KAEX Reporting Station
Clear Clear  
Wind Chill:   Ceiling: Unl
Heat Index:   Visibility: 9mi
Dew Point:   Wind: 0mph
Humidity: 89%   Direction: NA
Pressure: 30.17"   Gusts: NA
Location:  31.3168°N, 92.7338°W
Report Text: KAEX 280853Z 00000KT 9SM CLR 06/04 A3017 RMK AO2 SLP218 T00560039 53000
Loading
Personal Weather Stations






























Interactive Weather Map New forecast layout! Learn more

10-Day Weather Forecast

Advertisements
Track Severe Weather on mobile